Time;durP1;ratioP1;P1;durP2;ratioP2;P2;SDS_P1;SDS_P2;PMS_P1;PMS_P2;Temp;Humidity;BMP_temperature;BMP_pressure;BME280_temperature;BME280_humidity;BME280_pressure;Samples;Min_cycle;Max_cycle;Signal;HPM_P1;HPM_P2
2022/01/20 00:00:22;;;;;;;10.90;7.00;;;;;;;22.27;29.08;101556.63;104337;1311;73868;-85
2022/01/20 00:03:00;;;;;;;10.90;7.10;;;;;;;22.28;29.05;101550.30;104254;1313;60400;-81
2022/01/20 00:25:53;;;;;;;11.70;6.80;;;;;;;22.27;29.16;101524.89;102966;1323;74329;-83
2022/01/20 00:26:30;;;;;;;11.20;7.30;;;;;;;22.28;29.01;101524.83;102968;1325;60396;-79
2022/01/20 00:29:32;;;;;;;10.20;7.10;;;;;;;22.27;29.14;101522.01;103062;1322;60476;-87
2022/01/20 00:32:06;;;;;;;12.00;7.30;;;;;;;22.27;29.16;101521.48;102966;1323;72512;-81
2022/01/20 00:37:46;;;;;;;12.40;6.70;;;;;;;22.26;29.16;101513.95;102817;1322;60596;-86
2022/01/20 00:40:17;;;;;;;10.80;6.90;;;;;;;22.27;29.05;101508.20;102944;1323;60655;-83
2022/01/20 00:43:01;;;;;;;11.70;7.20;;;;;;;22.26;29.15;101501.61;102943;1322;72865;-83
2022/01/20 00:45:32;;;;;;;10.50;6.90;;;;;;;22.26;29.02;101493.90;103070;1322;75121;-83
2022/01/20 00:48:19;;;;;;;;;;;;;;;;;;;;;
2022/01/20 00:51:04;;;;;;;12.20;7.30;;;;;;;22.26;29.08;101482.76;103062;1323;61524;-85
2022/01/20 00:53:43;;;;;;;11.10;7.50;;;;;;;22.27;29.06;101477.01;102990;1323;73593;-85
2022/01/20 00:56:19;;;;;;;12.10;7.20;;;;;;;22.27;29.16;101475.77;103570;1316;74538;-82
2022/01/20 00:59:04;;;;;;;10.60;6.90;;;;;;;22.27;29.06;101473.58;103808;1317;60531;-82
2022/01/20 01:02:10;;;;;;;10.80;7.20;;;;;;;22.28;29.11;101472.31;102903;1319;60435;-83
2022/01/20 01:04:55;;;;;;;;;;;;;;;;;;;;;
2022/01/20 01:07:58;;;;;;;;;;;;;;;;;;;;;
2022/01/20 01:13:28;;;;;;;13.40;7.70;;;;;;;22.29;29.10;101460.37;102511;1329;60424;-81
2022/01/20 01:16:08;;;;;;;12.00;7.20;;;;;;;22.28;29.12;101452.86;102769;1325;72757;-85
2022/01/20 01:22:35;;;;;;;10.40;6.20;;;;;;;22.27;29.18;101440.39;103006;1324;60411;-86
2022/01/20 01:25:41;;;;;;;10.80;7.00;;;;;;;22.27;29.15;101431.45;103025;1325;60638;-85
2022/01/20 01:28:27;;;;;;;;;;;;;;;;;;;;;
2022/01/20 01:31:31;;;;;;;8.80;6.40;;;;;;;22.28;29.14;101424.90;102990;1325;74113;-78
2022/01/20 01:34:04;;;;;;;8.50;6.60;;;;;;;22.28;29.13;101416.66;102691;1329;62106;-85
2022/01/20 01:39:56;;;;;;;11.70;6.90;;;;;;;22.28;29.22;101403.24;102778;1326;72833;-85
2022/01/20 01:42:48;;;;;;;11.30;6.60;;;;;;;22.29;29.22;101401.57;103024;1323;74055;-84
2022/01/20 01:45:48;;;;;;;8.90;5.90;;;;;;;22.29;29.20;101397.10;102826;1323;60496;-82
2022/01/20 01:48:36;;;;;;;9.40;6.50;;;;;;;22.28;29.13;101394.44;103549;1319;61449;-86
2022/01/20 01:51:38;;;;;;;9.90;6.10;;;;;;;22.29;29.22;101391.01;103988;1314;72734;-86
2022/01/20 01:54:09;;;;;;;10.60;6.50;;;;;;;22.29;29.24;101381.31;104142;1314;75027;-77
2022/01/20 01:57:01;;;;;;;10.80;6.20;;;;;;;22.29;29.34;101378.09;104031;1314;61320;-83
2022/01/20 01:59:35;;;;;;;10.00;6.80;;;;;;;22.30;28.98;101369.27;104167;1314;61456;-86
2022/01/20 02:02:32;;;;;;;12.00;6.90;;;;;;;22.30;29.07;101367.27;104147;1314;73795;-83
2022/01/20 02:05:06;;;;;;;11.60;6.70;;;;;;;22.30;29.25;101363.89;104064;1314;73909;-83
2022/01/20 02:19:49;;;;;;;8.40;6.00;;;;;;;22.28;29.17;101336.54;103459;1319;61436;-83
2022/01/20 02:22:38;;;;;;;9.40;6.50;;;;;;;22.29;29.20;101328.08;103629;1319;60531;-82
2022/01/20 02:25:27;;;;;;;10.40;6.10;;;;;;;22.29;29.16;101326.64;103651;1319;73579;-83
2022/01/20 02:28:03;;;;;;;10.10;6.10;;;;;;;22.29;29.12;101330.39;103672;1319;74368;-79
2022/01/20 02:30:29;;;;;;;9.00;6.40;;;;;;;22.29;29.17;101322.85;103634;1319;60571;-84
2022/01/20 02:33:32;;;;;;;8.80;6.10;;;;;;;22.29;29.15;101320.70;103634;1319;60593;-78
2022/01/20 02:36:16;;;;;;;9.80;6.70;;;;;;;22.28;29.08;101319.69;102848;1325;73646;-78
2022/01/20 02:38:51;;;;;;;8.40;6.20;;;;;;;22.28;29.15;101317.85;102772;1325;75011;-81
2022/01/20 02:45:06;;;;;;;;;;;;;;;;;;;;;
2022/01/20 02:47:50;;;;;;;9.40;5.80;;;;;;;22.29;29.09;101297.04;102932;1319;73834;-83
2022/01/20 02:50:21;;;;;;;9.80;5.90;;;;;;;22.29;29.10;101293.45;103658;1317;74086;-82
2022/01/20 02:53:06;;;;;;;8.60;6.30;;;;;;;22.29;29.11;101292.22;103849;1313;60737;-85
2022/01/20 02:55:44;;;;;;;7.80;5.80;;;;;;;22.28;29.08;101290.09;103813;1313;60420;-82
2022/01/20 02:58:27;;;;;;;11.10;6.80;;;;;;;22.29;29.19;101290.92;104200;1313;73850;-83
2022/01/20 03:01:07;;;;;;;9.40;6.30;;;;;;;22.29;29.15;101291.86;104312;1313;74459;-81
2022/01/20 03:03:58;;;;;;;9.20;6.10;;;;;;;22.28;29.23;101288.48;104288;1313;61659;-82
2022/01/20 03:06:35;;;;;;;9.30;5.70;;;;;;;22.28;29.05;101284.19;103684;1319;61452;-83
2022/01/20 03:09:41;;;;;;;9.30;6.00;;;;;;;22.28;29.16;101282.04;103676;1319;72069;-83
2022/01/20 03:12:19;;;;;;;10.80;6.30;;;;;;;22.28;29.26;101278.98;103769;1313;74928;-81
2022/01/20 03:14:53;;;;;;;9.20;6.00;;;;;;;22.28;29.16;101275.97;104323;1311;60548;-80
2022/01/20 03:17:27;;;;;;;10.20;6.20;;;;;;;22.28;29.19;101271.47;104284;1311;61335;-84
2022/01/20 03:20:13;;;;;;;9.40;5.70;;;;;;;22.28;29.01;101270.93;104324;1311;72856;-85
2022/01/20 03:22:59;;;;;;;9.50;6.10;;;;;;;22.28;29.16;101267.88;104353;1310;75179;-86
2022/01/20 03:25:36;;;;;;;11.60;6.00;;;;;;;22.28;29.07;101269.50;104304;1311;61373;-84
2022/01/20 03:28:14;;;;;;;8.80;5.70;;;;;;;22.27;29.15;101261.30;104315;1311;61565;-83
2022/01/20 03:30:42;;;;;;;10.90;6.70;;;;;;;22.28;29.15;101260.91;104286;1311;72986;-83
2022/01/20 03:33:17;;;;;;;11.00;6.50;;;;;;;22.28;29.13;101256.57;104256;1311;73998;-85
2022/01/20 03:36:06;;;;;;;9.40;6.00;;;;;;;22.28;29.15;101250.81;104295;1313;60498;-85
2022/01/20 03:38:46;;;;;;;;;;;;;;;22.28;29.14;101246.55;104333;1313;60603;-82
2022/01/20 03:41:16;;;;;;;7.70;5.50;;;;;;;22.25;29.23;101244.02;104287;1311;74041;-84
2022/01/20 03:43:46;;;;;;;10.40;6.20;;;;;;;22.27;29.07;101245.72;104469;1305;74240;-82
2022/01/20 03:46:23;;;;;;;9.00;5.90;;;;;;;22.27;29.23;101243.57;104859;1303;61367;-83
2022/01/20 03:49:36;;;;;;;10.30;6.10;;;;;;;22.27;29.05;101247.34;104869;1303;60489;-84
2022/01/20 03:52:14;;;;;;;;;;;;;;;;;;;;;
2022/01/20 03:54:46;;;;;;;9.80;6.10;;;;;;;22.27;29.01;101246.23;104840;1303;73923;-83
2022/01/20 03:57:26;;;;;;;;;;;;;;;;;;;;;
2022/01/20 04:00:09;;;;;;;9.80;6.10;;;;;;;22.26;29.03;101237.67;104652;1304;60556;-82
2022/01/20 04:02:40;;;;;;;10.30;5.60;;;;;;;22.27;29.09;101238.19;104849;1303;72806;-80
2022/01/20 04:05:24;;;;;;;8.90;5.90;;;;;;;22.27;29.07;101241.75;104748;1304;74982;-82
2022/01/20 04:08:01;;;;;;;8.70;5.80;;;;;;;22.26;29.12;101235.36;104418;1310;60424;-81
2022/01/20 04:10:36;;;;;;;8.20;5.50;;;;;;;22.26;29.08;101236.96;104388;1310;60432;-82
2022/01/20 04:13:11;;;;;;;11.20;6.40;;;;;;;22.26;29.27;101234.81;104449;1310;72927;-82
2022/01/20 04:15:50;;;;;;;11.20;5.90;;;;;;;22.26;29.35;101235.34;104538;1310;75048;-83
2022/01/20 04:18:26;;;;;;;10.30;5.80;;;;;;;22.26;29.10;101229.95;104443;1311;60528;-88
2022/01/20 04:20:54;;;;;;;10.30;5.90;;;;;;;22.26;29.02;101230.35;104401;1310;60516;-83
2022/01/20 04:23:23;;;;;;;10.80;6.30;;;;;;;22.27;29.10;101228.31;104464;1311;73696;-82
2022/01/20 04:25:58;;;;;;;;;;;;;;;22.27;29.19;101222.59;104441;1309;75239;-82
2022/01/20 04:29:03;;;;;;;10.10;6.20;;;;;;;22.24;29.19;101221.35;104486;1311;60507;-82
2022/01/20 04:31:50;;;;;;;10.30;5.50;;;;;;;22.24;29.22;101219.54;104446;1311;61382;-82
2022/01/20 04:34:35;;;;;;;9.60;6.10;;;;;;;22.24;29.24;101216.88;104432;1309;73829;-82
2022/01/20 04:37:12;;;;;;;9.40;6.40;;;;;;;22.24;29.19;101214.16;104427;1310;75082;-80
2022/01/20 04:42:54;;;;;;;9.70;6.20;;;;;;;22.25;29.08;101212.47;104456;1311;60403;-82
2022/01/20 04:45:50;;;;;;;9.00;5.90;;;;;;;22.25;28.96;101210.52;104324;1310;74007;-85
2022/01/20 04:48:59;;;;;;;;;;;;;;;;;;;;;
2022/01/20 04:57:23;;;;;;;8.10;5.80;;;;;;;22.25;28.95;101217.17;104165;1313;72095;-85
2022/01/20 04:59:52;;;;;;;10.10;6.20;;;;;;;22.25;28.88;101215.58;104167;1314;73943;-83
2022/01/20 05:02:40;;;;;;;11.80;6.80;;;;;;;22.23;28.64;101216.73;103897;1314;61558;-82
2022/01/20 05:05:28;;;;;;;10.90;6.50;;;;;;;22.22;28.76;101215.04;104127;1314;60657;-83
2022/01/20 05:07:56;;;;;;;11.40;6.90;;;;;;;22.20;28.38;101214.06;104160;1314;73063;-83
2022/01/20 05:10:52;;;;;;;11.80;7.20;;;;;;;22.19;28.33;101213.67;104182;1314;73871;-83
2022/01/20 05:13:47;;;;;;;;;;;;;;;;;;;;;
2022/01/20 05:16:14;;;;;;;12.90;7.70;;;;;;;22.15;28.03;101210.16;104113;1314;61449;-82
2022/01/20 05:19:07;;;;;;;;;;;;;;;;;;;;;
2022/01/20 05:21:41;;;;;;;12.00;7.70;;;;;;;22.12;27.68;101208.38;103851;1314;74001;-84
2022/01/20 05:24:09;;;;;;;13.90;7.70;;;;;;;22.11;27.57;101205.05;104162;1311;60913;-81
2022/01/20 05:26:58;;;;;;;11.50;7.60;;;;;;;22.10;27.43;101205.08;104153;1311;60521;-84
2022/01/20 05:29:23;;;;;;;15.80;7.50;;;;;;;22.11;27.38;101202.90;104120;1311;73944;-80
2022/01/20 05:31:53;;;;;;;14.60;7.80;;;;;;;22.11;27.26;101200.23;103786;1311;60548;-79
2022/01/20 05:34:19;;;;;;;12.20;7.00;;;;;;;22.10;27.09;101199.52;104157;1302;60318;-79
2022/01/20 05:36:47;;;;;;;12.20;8.10;;;;;;;22.10;27.06;101199.70;104646;1301;60565;-79
2022/01/20 05:39:12;;;;;;;14.90;7.40;;;;;;;22.10;26.85;101203.89;105244;1302;74028;-81
2022/01/20 05:41:41;;;;;;;14.80;8.60;;;;;;;22.08;26.92;101199.67;104437;1302;61248;-79
2022/01/20 05:44:06;;;;;;;14.90;8.90;;;;;;;22.04;26.87;101196.92;104579;1302;60319;-79
2022/01/20 05:46:41;;;;;;;15.60;8.50;;;;;;;21.98;26.64;101194.98;104500;1302;61494;-78
2022/01/20 05:49:10;;;;;;;15.50;9.30;;;;;;;21.90;26.60;101192.80;104424;1302;73115;-79
2022/01/20 05:51:39;;;;;;;15.90;9.60;;;;;;;21.83;26.25;101192.60;104336;1302;74905;-78
2022/01/20 05:54:14;;;;;;;18.70;9.00;;;;;;;21.74;26.06;101190.00;104252;1302;60484;-80
2022/01/20 05:56:39;;;;;;;20.00;10.50;;;;;;;21.65;25.81;101185.77;104569;1302;60955;-80
2022/01/20 05:59:06;;;;;;;19.10;10.50;;;;;;;21.55;25.46;101191.13;104582;1302;59525;-79
2022/01/20 06:01:36;;;;;;;18.20;10.40;;;;;;;21.45;25.21;101184.77;104371;1302;59442;-79
2022/01/20 06:04:02;;;;;;;19.20;9.90;;;;;;;21.36;25.13;101183.20;104319;1302;60618;-78
2022/01/20 06:06:27;;;;;;;20.60;10.20;;;;;;;21.31;24.87;101181.91;104393;1302;60458;-79
2022/01/20 06:08:53;;;;;;;15.50;9.40;;;;;;;21.28;24.82;101178.38;104421;1302;60468;-79
2022/01/20 06:11:21;;;;;;;18.20;9.80;;;;;;;21.26;24.56;101183.29;104295;1302;74156;-81
2022/01/20 06:13:47;;;;;;;23.00;10.10;;;;;;;21.26;24.64;101180.80;104279;1302;60478;-79
2022/01/20 06:16:13;;;;;;;16.70;9.20;;;;;;;21.29;24.53;101179.37;104515;1302;59452;-79
2022/01/20 06:18:39;;;;;;;17.10;8.90;;;;;;;21.33;24.54;101175.36;104400;1302;59313;-79
2022/01/20 06:21:13;;;;;;;14.00;8.20;;;;;;;21.38;24.36;101172.02;104468;1302;73949;-79
2022/01/20 06:23:40;;;;;;;17.00;8.80;;;;;;;21.42;24.56;101169.89;104333;1302;60766;-80
2022/01/20 06:26:06;;;;;;;14.10;7.60;;;;;;;21.47;24.46;101167.43;104308;1302;60401;-80
2022/01/20 06:28:36;;;;;;;15.60;7.70;;;;;;;21.52;24.67;101163.17;104608;1302;60622;-80
2022/01/20 06:31:02;;;;;;;13.10;7.50;;;;;;;21.58;24.96;101163.33;104532;1305;75302;-78
2022/01/20 06:33:36;;;;;;;16.60;7.90;;;;;;;21.64;24.91;101162.09;104413;1305;60997;-80
2022/01/20 06:36:13;;;;;;;13.30;7.80;;;;;;;21.68;25.08;101161.93;104478;1302;60784;-80
2022/01/20 06:38:39;;;;;;;13.40;7.20;;;;;;;21.73;25.12;101152.97;104498;1305;72880;-80
2022/01/20 06:41:04;;;;;;;13.50;7.30;;;;;;;21.78;25.30;101149.78;104378;1302;59454;-79
2022/01/20 06:43:30;;;;;;;12.10;7.30;;;;;;;21.82;25.21;101140.71;104513;1302;60494;-79
2022/01/20 06:45:55;;;;;;;13.60;7.10;;;;;;;21.87;25.55;101136.60;104501;1301;60450;-80
2022/01/20 06:48:22;;;;;;;12.80;7.10;;;;;;;21.91;25.64;101133.08;104283;1302;60510;-79
2022/01/20 06:50:48;;;;;;;13.90;8.00;;;;;;;21.96;25.80;101134.23;104431;1302;59498;-78
2022/01/20 06:53:16;;;;;;;19.00;9.70;;;;;;;21.98;25.99;101141.42;104225;1302;74564;-81
2022/01/20 06:55:44;;;;;;;20.10;9.40;;;;;;;21.91;25.78;101136.16;104761;1302;61198;-80
2022/01/20 06:58:10;;;;;;;19.70;9.90;;;;;;;21.77;25.43;101139.62;104745;1301;61445;-79
2022/01/20 07:00:35;;;;;;;17.20;8.70;;;;;;;21.58;25.24;101138.80;104224;1302;61278;-78
2022/01/20 07:03:01;;;;;;;20.50;9.60;;;;;;;21.49;25.22;101144.75;104224;1302;61366;-78
2022/01/20 07:05:27;;;;;;;18.80;10.00;;;;;;;21.49;25.23;101148.52;104340;1302;61288;-81
2022/01/20 07:07:53;;;;;;;18.00;9.10;;;;;;;21.49;25.35;101145.98;104687;1302;61505;-81
2022/01/20 07:10:19;;;;;;;21.40;9.10;;;;;;;21.50;25.26;101149.66;104660;1302;61263;-79
2022/01/20 07:12:45;;;;;;;23.70;9.00;;;;;;;21.52;25.16;101145.63;104227;1302;59175;-78
2022/01/20 07:15:13;;;;;;;17.60;9.00;;;;;;;21.54;25.28;101138.33;104377;1301;61381;-81
2022/01/20 07:17:39;;;;;;;15.90;9.40;;;;;;;21.57;25.09;101130.63;104320;1302;61384;-80
2022/01/20 07:20:05;;;;;;;16.90;9.20;;;;;;;21.58;24.91;101118.16;104377;1302;61797;-79
2022/01/20 07:22:31;;;;;;;15.60;8.90;;;;;;;21.61;24.84;101111.02;104565;1302;61199;-79
2022/01/20 07:25:05;;;;;;;16.00;9.90;;;;;;;21.64;24.90;101102.58;104501;1302;61263;-81
2022/01/20 07:27:31;;;;;;;15.00;8.80;;;;;;;21.68;24.72;101089.42;104286;1302;61134;-78
2022/01/20 07:29:57;;;;;;;18.30;9.00;;;;;;;21.71;24.79;101082.58;104291;1300;61324;-78
2022/01/20 07:32:22;;;;;;;14.20;8.40;;;;;;;21.74;24.96;101073.90;104322;1302;61436;-78
2022/01/20 07:34:48;;;;;;;18.60;9.30;;;;;;;21.78;24.79;101077.59;104551;1302;61274;-79
2022/01/20 07:37:26;;;;;;;13.20;7.80;;;;;;;21.82;25.10;101076.45;104442;1302;61145;-84
2022/01/20 07:39:53;;;;;;;14.50;8.40;;;;;;;21.85;25.14;101070.49;104461;1302;61298;-78
2022/01/20 07:42:33;;;;;;;19.90;8.70;;;;;;;21.89;25.16;101072.89;104385;1302;72632;-79
2022/01/20 07:45:03;;;;;;;15.00;7.80;;;;;;;21.92;25.33;101068.53;104397;1303;75785;-79
2022/01/20 07:47:32;;;;;;;14.50;7.60;;;;;;;21.97;25.59;101068.05;104409;1302;61377;-82
2022/01/20 07:49:57;;;;;;;17.50;7.90;;;;;;;22.00;25.72;101068.73;104600;1302;61162;-79
2022/01/20 07:52:23;;;;;;;14.20;7.70;;;;;;;22.03;25.85;101071.31;104398;1302;61262;-77
2022/01/20 07:54:49;;;;;;;14.50;8.10;;;;;;;22.07;25.86;101077.86;104352;1302;59819;-81
2022/01/20 07:57:14;;;;;;;17.10;8.10;;;;;;;22.05;25.70;101079.79;104640;1302;61386;-79
2022/01/20 07:59:40;;;;;;;18.50;8.20;;;;;;;22.00;25.78;101077.71;104390;1302;63156;-78
2022/01/20 08:02:06;;;;;;;20.70;8.20;;;;;;;21.94;25.57;101074.90;104023;1302;61298;-78
2022/01/20 08:04:34;;;;;;;19.90;8.30;;;;;;;21.88;25.71;101071.88;104344;1302;73736;-79
2022/01/20 08:07:00;;;;;;;22.10;7.80;;;;;;;21.85;25.77;101070.15;104267;1301;75641;-79
2022/01/20 08:09:26;;;;;;;19.00;8.00;;;;;;;21.82;25.95;101070.54;103793;1302;61265;-80
2022/01/20 08:11:51;;;;;;;17.00;7.50;;;;;;;21.78;25.96;101066.64;104012;1302;61248;-79
2022/01/20 08:14:17;;;;;;;20.10;7.50;;;;;;;21.74;25.88;101064.78;103981;1302;61190;-82
2022/01/20 08:16:43;;;;;;;14.80;8.20;;;;;;;21.70;25.54;101058.29;104269;1302;61148;-79
2022/01/20 08:19:11;;;;;;;20.70;9.20;;;;;;;21.66;25.62;101054.77;103971;1302;61397;-79
2022/01/20 08:21:39;;;;;;;16.90;7.90;;;;;;;21.62;25.57;101050.81;103929;1305;61447;-80
2022/01/20 08:24:05;;;;;;;16.20;8.20;;;;;;;21.57;25.22;101045.91;104244;1302;61760;-78
2022/01/20 08:26:31;;;;;;;19.80;8.00;;;;;;;21.56;25.06;101044.38;104416;1302;60108;-78
2022/01/20 08:28:56;;;;;;;17.90;7.60;;;;;;;21.57;24.86;101042.85;104431;1302;61344;-79
2022/01/20 08:31:24;;;;;;;17.70;7.20;;;;;;;21.60;25.07;101044.97;104320;1302;61305;-79
2022/01/20 08:33:49;;;;;;;12.90;7.80;;;;;;;21.64;25.18;101053.86;104325;1305;61332;-79
2022/01/20 08:36:15;;;;;;;16.50;7.20;;;;;;;21.67;25.15;101055.58;104440;1302;61315;-79
2022/01/20 08:38:41;;;;;;;12.20;6.90;;;;;;;21.71;25.44;101051.89;104187;1302;61320;-79
2022/01/20 08:41:09;;;;;;;13.70;7.00;;;;;;;21.76;25.44;101047.84;104134;1302;61417;-80
2022/01/20 08:43:38;;;;;;;10.50;6.60;;;;;;;21.80;25.70;101044.84;104128;1302;61813;-78
2022/01/20 08:46:06;;;;;;;;;;;;;;;21.84;25.67;101044.79;105452;1302;72983;-79
2022/01/20 08:48:34;;;;;;;13.60;6.30;;;;;;;21.84;25.71;101041.89;104733;1302;74618;-79
2022/01/20 08:51:01;;;;;;;13.10;6.50;;;;;;;21.89;25.98;101043.71;104505;1302;61408;-78
2022/01/20 08:53:27;;;;;;;13.50;6.40;;;;;;;21.89;25.66;101050.46;103970;1302;61203;-79
2022/01/20 08:55:53;;;;;;;19.70;6.80;;;;;;;21.85;25.76;101045.79;104435;1302;72671;-77
2022/01/20 08:58:19;;;;;;;21.70;7.40;;;;;;;21.77;25.39;101044.16;104406;1301;59910;-79
2022/01/20 09:00:45;;;;;;;20.00;6.60;;;;;;;21.66;25.25;101040.10;104283;1302;63672;-79
2022/01/20 09:03:11;;;;;;;19.80;6.60;;;;;;;21.60;25.43;101040.51;104438;1302;61648;-78
2022/01/20 09:05:37;;;;;;;15.30;6.70;;;;;;;21.58;25.41;101037.73;104260;1302;61289;-79
2022/01/20 09:08:04;;;;;;;12.00;6.40;;;;;;;21.58;25.52;101027.23;104331;1301;59699;-78
2022/01/20 09:10:37;;;;;;;15.40;6.50;;;;;;;21.58;25.54;101023.79;104006;1302;61304;-78
2022/01/20 09:15:46;;;;;;;22.70;6.20;;;;;;;21.67;25.69;101014.44;104476;1300;74314;-79
2022/01/20 09:18:12;;;;;;;13.90;5.90;;;;;;;21.71;26.08;101005.91;104454;1302;61289;-78
2022/01/20 09:20:38;;;;;;;20.10;6.20;;;;;;;21.75;26.21;100998.45;104436;1302;62513;-80
2022/01/20 09:23:05;;;;;;;22.60;6.20;;;;;;;21.80;26.15;100996.84;104455;1302;61266;-78
2022/01/20 09:25:30;;;;;;;16.00;6.00;;;;;;;21.84;26.51;100994.95;104360;1302;61283;-79
2022/01/20 09:27:56;;;;;;;13.60;6.30;;;;;;;21.88;26.61;100990.90;104268;1301;61268;-79
2022/01/20 09:30:22;;;;;;;13.90;6.10;;;;;;;21.92;26.80;100989.88;104563;1302;61276;-78
2022/01/20 09:32:58;;;;;;;13.90;5.70;;;;;;;21.94;26.97;100978.48;104425;1302;61111;-78
2022/01/20 09:35:29;;;;;;;16.50;5.90;;;;;;;21.96;27.07;100975.48;104860;1302;61602;-79
2022/01/20 09:37:55;;;;;;;11.70;5.80;;;;;;;21.97;26.95;100967.46;104584;1302;73431;-80
2022/01/20 09:40:20;;;;;;;13.30;5.20;;;;;;;21.99;26.89;100957.82;104388;1302;61313;-78
2022/01/20 09:42:46;;;;;;;18.60;5.60;;;;;;;22.02;26.92;100952.80;104430;1301;61586;-79
2022/01/20 09:45:13;;;;;;;14.20;5.60;;;;;;;22.06;27.18;100951.27;104437;1302;63810;-79
2022/01/20 09:47:39;;;;;;;10.90;5.60;;;;;;;22.06;27.33;100948.34;104364;1302;61385;-79
2022/01/20 09:50:04;;;;;;;11.70;5.70;;;;;;;22.06;27.03;100936.90;105221;1302;60204;-79
2022/01/20 09:52:30;;;;;;;12.50;6.20;;;;;;;22.01;26.68;100932.83;105083;1303;59334;-79
2022/01/20 09:54:56;;;;;;;18.20;6.10;;;;;;;21.87;26.17;100929.85;105187;1302;60468;-79
2022/01/20 09:57:21;;;;;;;16.70;5.70;;;;;;;21.79;26.15;100916.65;105341;1302;59330;-80
2022/01/20 09:59:48;;;;;;;13.00;5.60;;;;;;;21.78;26.77;100909.38;105100;1302;59598;-78
2022/01/20 10:02:18;;;;;;;24.70;6.20;;;;;;;21.81;26.94;100901.13;104939;1302;60571;-81
2022/01/20 10:04:44;;;;;;;18.60;6.30;;;;;;;21.84;27.03;100896.73;105028;1302;61920;-79
2022/01/20 10:07:13;;;;;;;16.90;5.80;;;;;;;21.85;27.01;100885.58;104375;1301;61320;-81
2022/01/20 10:09:45;;;;;;;18.20;5.90;;;;;;;21.83;26.83;100888.40;105186;1302;72896;-80
2022/01/20 10:12:12;;;;;;;17.40;5.10;;;;;;;21.83;26.92;100879.48;105107;1302;351730;-79
2022/01/20 10:14:48;;;;;;;18.40;6.10;;;;;;;21.83;26.73;100878.34;105204;1302;60446;-79
2022/01/20 10:17:34;;;;;;;13.80;5.60;;;;;;;21.86;26.68;100875.27;105424;1301;60417;-80
2022/01/20 10:20:01;;;;;;;16.30;5.80;;;;;;;21.91;26.62;100872.03;104775;1309;75513;-81
2022/01/20 10:22:27;;;;;;;14.10;5.70;;;;;;;21.95;26.69;100873.42;104702;1309;72562;-80
2022/01/20 10:25:08;;;;;;;19.60;6.00;;;;;;;21.94;26.72;100869.91;104750;1309;60654;-80
2022/01/20 10:27:53;;;;;;;15.10;6.30;;;;;;;21.95;26.29;100866.42;104648;1310;59586;-79
2022/01/20 10:30:20;;;;;;;16.40;6.10;;;;;;;21.95;26.12;100862.13;104872;1309;73564;-79
2022/01/20 10:32:54;;;;;;;15.70;5.90;;;;;;;21.95;25.99;100853.67;104849;1310;60238;-79
2022/01/20 10:35:24;;;;;;;17.70;5.90;;;;;;;21.96;25.88;100854.49;104799;1310;61346;-79
2022/01/20 10:37:57;;;;;;;13.50;5.60;;;;;;;21.99;25.73;100843.91;104955;1310;60385;-79
2022/01/20 10:40:23;;;;;;;15.10;6.10;;;;;;;22.01;25.69;100844.41;105024;1309;73835;-79
2022/01/20 10:42:48;;;;;;;20.30;6.10;;;;;;;22.04;25.97;100847.11;104902;1309;59759;-80
2022/01/20 10:45:25;;;;;;;15.00;6.30;;;;;;;22.06;26.15;100846.38;104866;1309;59559;-80
2022/01/20 10:47:53;;;;;;;14.60;6.10;;;;;;;22.10;26.37;100847.90;104204;1309;61197;-78
2022/01/20 10:50:23;;;;;;;17.10;6.80;;;;;;;22.12;26.52;100843.13;104767;1309;71788;-78
2022/01/20 10:52:50;;;;;;;20.80;6.50;;;;;;;22.12;26.45;100835.73;104575;1311;74668;-78
2022/01/20 10:55:25;;;;;;;19.00;6.60;;;;;;;22.09;26.29;100834.75;104651;1310;60372;-78
2022/01/20 10:57:51;;;;;;;18.50;6.60;;;;;;;22.04;26.32;100839.77;104912;1302;60468;-78
2022/01/20 11:00:19;;;;;;;15.80;6.00;;;;;;;21.98;26.21;100830.67;105145;1302;59328;-78
2022/01/20 11:02:53;;;;;;;15.20;6.50;;;;;;;21.94;25.99;100832.41;105369;1302;74738;-78
2022/01/20 11:05:19;;;;;;;18.20;6.90;;;;;;;21.85;26.03;100822.86;105188;1304;60335;-78
2022/01/20 11:07:45;;;;;;;17.80;6.30;;;;;;;21.76;26.05;100817.24;105385;1302;59588;-78
2022/01/20 11:10:11;;;;;;;14.30;6.20;;;;;;;21.76;25.98;100808.48;105169;1301;59328;-78
2022/01/20 11:12:37;;;;;;;13.90;6.20;;;;;;;21.80;26.00;100810.17;105310;1302;59191;-78
2022/01/20 11:15:06;;;;;;;12.90;6.60;;;;;;;21.85;26.55;100804.10;105314;1302;59576;-78
2022/01/20 11:17:33;;;;;;;14.60;6.70;;;;;;;21.89;26.63;100802.83;104524;1303;61708;-78
2022/01/20 11:20:14;;;;;;;18.50;6.80;;;;;;;21.94;26.73;100792.81;104414;1302;73045;-80
2022/01/20 11:22:58;;;;;;;19.90;6.70;;;;;;;21.98;26.70;100795.61;104728;1302;75792;-81
2022/01/20 11:25:25;;;;;;;17.60;6.30;;;;;;;22.01;26.74;100798.00;104293;1302;61798;-79
2022/01/20 11:27:59;;;;;;;15.90;6.20;;;;;;;22.05;26.74;100793.46;105677;1301;61653;-79
2022/01/20 11:30:26;;;;;;;15.20;6.20;;;;;;;22.08;26.84;100792.64;105419;1302;72970;-79
2022/01/20 11:33:00;;;;;;;16.60;6.70;;;;;;;22.10;26.73;100790.20;104775;1302;75766;-80
2022/01/20 11:35:41;;;;;;;16.60;7.20;;;;;;;22.09;26.66;100789.20;104408;1302;61369;-79
2022/01/20 11:38:07;;;;;;;16.60;6.80;;;;;;;22.06;26.54;100782.41;104167;1302;61551;-79
2022/01/20 11:40:34;;;;;;;15.80;7.10;;;;;;;22.04;26.41;100778.40;104251;1302;61199;-78
2022/01/20 11:43:04;;;;;;;18.40;6.80;;;;;;;22.05;26.23;100775.31;104171;1303;61245;-79
2022/01/20 11:45:38;;;;;;;23.00;7.00;;;;;;;22.06;26.22;100772.71;105086;1302;61365;-80
2022/01/20 11:48:15;;;;;;;17.90;7.30;;;;;;;22.05;26.01;100759.77;104158;1302;61474;-79
2022/01/20 11:50:43;;;;;;;14.60;7.40;;;;;;;22.01;26.18;100750.88;104302;1302;74152;-79
2022/01/20 11:53:11;;;;;;;11.90;6.40;;;;;;;21.91;25.72;100751.50;104254;1302;75384;-81
2022/01/20 11:55:52;;;;;;;18.10;7.00;;;;;;;21.82;25.68;100747.87;104645;1301;61218;-79
2022/01/20 11:58:20;;;;;;;14.50;6.20;;;;;;;21.77;25.78;100746.04;104278;1302;61159;-78
2022/01/20 12:01:16;;;;;;;21.60;7.20;;;;;;;21.75;25.74;100745.33;104434;1302;71713;-78
2022/01/20 12:03:49;;;;;;;14.50;7.10;;;;;;;21.74;25.83;100736.08;103830;1311;74813;-78
2022/01/20 12:06:22;;;;;;;14.90;6.90;;;;;;;21.74;26.12;100727.86;104677;1311;60249;-78
2022/01/20 12:08:58;;;;;;;16.30;6.40;;;;;;;21.74;26.18;100722.83;104687;1313;61439;-78
2022/01/20 12:11:45;;;;;;;15.10;6.70;;;;;;;21.78;26.17;100723.48;104585;1312;71657;-79
2022/01/20 12:14:11;;;;;;;18.00;7.40;;;;;;;21.83;26.27;100717.14;104560;1311;74722;-78
2022/01/20 12:16:37;;;;;;;13.10;6.80;;;;;;;21.87;26.36;100712.38;104720;1313;59620;-78
2022/01/20 12:19:05;;;;;;;17.40;7.00;;;;;;;21.92;26.54;100707.30;104593;1311;59743;-79
2022/01/20 12:21:31;;;;;;;13.00;7.00;;;;;;;21.95;26.70;100711.24;104703;1311;73818;-79
2022/01/20 12:23:57;;;;;;;15.60;7.70;;;;;;;21.93;26.60;100709.92;104659;1313;59597;-79
2022/01/20 12:26:22;;;;;;;20.90;7.30;;;;;;;21.93;26.57;100709.55;104747;1312;59782;-79
2022/01/20 12:29:01;;;;;;;13.80;7.10;;;;;;;21.92;26.39;100709.48;104797;1311;59643;-79
2022/01/20 12:31:26;;;;;;;14.90;7.40;;;;;;;21.91;26.23;100712.05;104561;1310;74074;-79
2022/01/20 12:33:53;;;;;;;18.30;7.60;;;;;;;21.90;26.17;100707.49;103764;1311;62208;-79
2022/01/20 12:36:29;;;;;;;15.80;6.60;;;;;;;21.89;26.01;100709.37;103852;1311;61234;-80
2022/01/20 12:38:54;;;;;;;13.10;6.80;;;;;;;21.88;25.95;100705.29;103896;1311;61287;-79
2022/01/20 12:41:22;;;;;;;18.00;6.80;;;;;;;21.87;25.84;100709.31;104118;1305;61366;-80
2022/01/20 12:43:55;;;;;;;17.90;7.20;;;;;;;21.85;25.89;100709.27;104275;1301;76164;-79
2022/01/20 12:46:25;;;;;;;15.20;6.90;;;;;;;21.83;25.72;100710.50;105331;1302;60512;-78
2022/01/20 12:48:51;;;;;;;16.60;7.20;;;;;;;21.83;25.68;100704.10;105430;1302;61457;-78
2022/01/20 12:51:16;;;;;;;14.60;7.00;;;;;;;21.84;25.67;100704.35;105550;1302;59474;-79